Time;durP1;ratioP1;P1;durP2;ratioP2;P2;SDS_P1;SDS_P2;PMS_P1;PMS_P2;Temp;Humidity;BMP_temperature;BMP_pressure;BME280_temperature;BME280_humidity;BME280_pressure;Samples;Min_cycle;Max_cycle;Signal;HPM_P1;HPM_P2
2023/03/27 00:01:56;;;;;;;8.60;2.00;;;7.40;62.90;;;;;;5014144;28;20038;-49
2023/03/27 00:04:22;;;;;;;5.97;1.80;;;7.40;63.10;;;;;;5024393;28;20068;-47
2023/03/27 00:07:09;;;;;;;6.63;1.50;;;7.40;63.10;;;;;;5017017;28;20410;-46
2023/03/27 00:09:38;;;;;;;8.20;1.80;;;7.40;63.10;;;;;;5022318;28;20056;-47
2023/03/27 00:12:05;;;;;;;6.88;1.70;;;7.30;63.10;;;;;;5028446;28;20108;-50
2023/03/27 00:14:32;;;;;;;5.88;1.85;;;7.30;63.20;;;;;;5018741;28;20037;-48
2023/03/27 00:17:00;;;;;;;5.97;1.80;;;7.20;63.30;;;;;;5018378;28;20521;-50
2023/03/27 00:19:37;;;;;;;5.13;1.33;;;7.20;63.40;;;;;;5028825;28;20057;-47
2023/03/27 00:22:06;;;;;;;8.38;1.77;;;7.20;63.50;;;;;;5019910;28;20041;-48
2023/03/27 00:24:33;;;;;;;9.20;1.42;;;7.10;63.60;;;;;;5023906;28;20049;-48
2023/03/27 00:27:00;;;;;;;4.50;1.67;;;7.10;63.70;;;;;;5028076;28;20037;-49
2023/03/27 00:29:34;;;;;;;10.38;1.67;;;7.10;63.70;;;;;;5004832;28;20049;-47
2023/03/27 00:32:06;;;;;;;6.25;1.70;;;7.00;63.90;;;;;;5021624;28;20069;-46
2023/03/27 00:34:32;;;;;;;4.55;2.15;;;7.00;64.00;;;;;;5023447;28;20442;-50
2023/03/27 00:37:14;;;;;;;5.57;1.67;;;7.00;64.10;;;;;;5022825;28;20116;-50
2023/03/27 00:39:41;;;;;;;6.43;2.40;;;6.90;64.10;;;;;;5026457;28;20055;-51
2023/03/27 00:42:15;;;;;;;6.10;2.13;;;6.90;64.20;;;;;;5024825;28;20044;-49
2023/03/27 00:44:42;;;;;;;5.90;1.52;;;6.90;64.30;;;;;;5022383;28;20461;-51
2023/03/27 00:47:11;;;;;;;4.40;1.73;;;6.90;64.40;;;;;;5023976;28;20114;-50
2023/03/27 00:49:42;;;;;;;7.22;1.73;;;6.80;64.40;;;;;;5027269;28;20053;-49
2023/03/27 00:52:28;;;;;;;6.22;1.52;;;6.80;64.40;;;;;;5030466;28;20038;-48
2023/03/27 00:55:01;;;;;;;6.05;1.65;;;6.80;64.50;;;;;;5031870;28;21757;-49
2023/03/27 00:57:30;;;;;;;8.23;2.45;;;6.80;64.60;;;;;;5021999;28;20049;-49
2023/03/27 01:00:01;;;;;;;5.88;1.88;;;6.80;64.70;;;;;;5017043;28;20034;-47
2023/03/27 01:02:30;;;;;;;7.32;1.80;;;6.70;64.70;;;;;;5031222;28;20046;-48
2023/03/27 01:05:00;;;;;;;4.78;1.88;;;6.70;64.80;;;;;;5019500;28;20060;-48
2023/03/27 01:07:27;;;;;;;7.35;2.03;;;6.70;64.80;;;;;;5016853;28;20042;-48
2023/03/27 01:09:55;;;;;;;5.20;1.75;;;6.70;64.90;;;;;;5046310;28;20045;-47
2023/03/27 01:12:48;;;;;;;10.57;2.08;;;6.60;64.90;;;;;;5023340;28;20041;-48
2023/03/27 01:15:33;;;;;;;5.22;1.52;;;6.60;64.90;;;;;;5036354;28;20506;-51
2023/03/27 01:18:31;;;;;;;6.68;2.00;;;6.60;65.00;;;;;;5026540;28;20049;-51
2023/03/27 01:21:47;;;;;;;4.18;1.52;;;6.60;65.00;;;;;;5024663;28;20042;-50
2023/03/27 01:24:49;;;;;;;5.97;1.60;;;6.60;65.10;;;;;;5018808;28;20038;-46
2023/03/27 01:27:37;;;;;;;5.95;1.85;;;6.60;65.10;;;;;;5041019;28;20037;-48
2023/03/27 01:30:22;;;;;;;5.40;1.10;;;6.50;65.10;;;;;;5027282;28;20049;-48
2023/03/27 01:33:18;;;;;;;9.63;2.20;;;6.50;65.20;;;;;;5030414;28;20044;-48
2023/03/27 01:36:01;;;;;;;4.82;1.40;;;6.50;65.30;;;;;;5013310;28;20045;-48
2023/03/27 01:39:04;;;;;;;4.95;1.55;;;6.50;65.40;;;;;;5027695;28;20120;-49
2023/03/27 01:42:01;;;;;;;2.38;1.08;;;6.40;65.50;;;;;;5043874;28;20569;-48
2023/03/27 01:44:36;;;;;;;7.30;2.35;;;6.30;65.50;;;;;;5010652;28;20502;-48
2023/03/27 01:47:35;;;;;;;5.80;1.88;;;6.40;65.50;;;;;;5029897;28;20041;-46
2023/03/27 01:50:15;;;;;;;4.85;1.33;;;6.40;65.50;;;;;;5021534;28;20409;-51
2023/03/27 01:52:51;;;;;;;8.60;1.65;;;6.40;65.60;;;;;;5028032;28;20149;-47
2023/03/27 01:55:22;;;;;;;6.65;1.25;;;6.30;65.50;;;;;;5030895;28;20037;-49
2023/03/27 01:58:06;;;;;;;6.43;1.98;;;6.30;65.60;;;;;;5028670;28;20046;-50
2023/03/27 02:00:37;;;;;;;5.47;1.52;;;6.30;65.70;;;;;;5024906;28;20041;-46
2023/03/27 02:03:45;;;;;;;6.32;2.13;;;6.50;65.80;;;;;;5024545;28;20537;-46
2023/03/27 02:06:29;;;;;;;;;;;6.20;65.70;;;;;;5009696;28;20124;-49
2023/03/27 02:09:02;;;;;;;5.72;1.30;;;6.30;65.70;;;;;;5041387;28;20027;-48
2023/03/27 02:11:36;;;;;;;3.65;1.33;;;6.20;65.50;;;;;;5027339;28;20057;-46
2023/03/27 02:14:18;;;;;;;7.15;1.95;;;6.20;65.60;;;;;;5030126;28;20037;-50
2023/03/27 02:17:01;;;;;;;8.32;2.35;;;6.20;65.80;;;;;;5028426;28;20045;-49
2023/03/27 02:19:34;;;;;;;5.50;1.65;;;6.20;65.90;;;;;;5026387;28;20126;-49
2023/03/27 02:22:02;;;;;;;6.00;2.13;;;6.10;66.10;;;;;;5027452;28;20049;-47
2023/03/27 02:24:37;;;;;;;4.68;1.80;;;6.10;66.20;;;;;;5025248;28;20403;-47
2023/03/27 02:27:34;;;;;;;7.40;2.83;;;6.10;66.40;;;;;;5022530;28;20044;-51
2023/03/27 02:30:07;;;;;;;4.95;1.85;;;6.10;66.50;;;;;;5022420;28;20038;-47
2023/03/27 02:32:44;;;;;;;4.65;1.38;;;6.20;66.40;;;;;;5029354;28;20121;-45
2023/03/27 02:35:39;;;;;;;8.93;1.75;;;6.20;66.30;;;;;;5033666;28;20041;-48
2023/03/27 02:38:18;;;;;;;7.47;1.30;;;6.20;66.30;;;;;;5021480;28;20041;-46
2023/03/27 02:41:06;;;;;;;5.28;1.73;;;6.20;66.20;;;;;;5040871;28;20041;-48
2023/03/27 02:44:01;;;;;;;5.53;1.40;;;6.20;66.20;;;;;;5029435;28;20049;-48
2023/03/27 02:46:57;;;;;;;7.80;1.73;;;6.20;66.20;;;;;;5027491;28;20077;-48
2023/03/27 02:49:42;;;;;;;6.53;1.58;;;6.20;66.20;;;;;;5025515;28;20420;-46
2023/03/27 02:52:17;;;;;;;9.77;2.03;;;6.20;66.20;;;;;;5026425;28;20041;-49
2023/03/27 02:54:58;;;;;;;4.88;1.63;;;6.10;66.10;;;;;;5027715;28;20069;-47
2023/03/27 02:57:31;;;;;;;7.88;1.80;;;6.10;66.20;;;;;;5027872;28;20073;-47
2023/03/27 03:00:24;;;;;;;4.55;1.95;;;6.10;66.30;;;;;;5027065;28;20136;-45
2023/03/27 03:03:29;;;;;;;8.60;2.20;;;6.10;66.40;;;;;;5025872;28;20050;-48
2023/03/27 03:06:10;;;;;;;4.13;1.85;;;6.10;66.50;;;;;;5027685;28;20046;-47
2023/03/27 03:08:42;;;;;;;4.50;1.48;;;6.00;66.40;;;;;;5012124;28;20513;-46
2023/03/27 03:11:13;;;;;;;4.97;1.48;;;6.10;66.60;;;;;;5021608;28;20049;-46
2023/03/27 03:13:40;;;;;;;4.90;1.42;;;6.00;66.60;;;;;;5030670;28;20053;-50
2023/03/27 03:16:09;;;;;;;4.70;1.33;;;6.00;66.70;;;;;;5015917;28;20046;-47
2023/03/27 03:18:40;;;;;;;5.22;1.88;;;6.00;66.80;;;;;;5014021;28;20053;-46
2023/03/27 03:21:07;;;;;;;6.28;1.70;;;6.00;66.80;;;;;;5024542;28;20047;-46
2023/03/27 03:23:34;;;;;;;6.57;1.70;;;6.00;66.70;;;;;;5024357;28;20137;-48
2023/03/27 03:26:01;;;;;;;12.77;2.05;;;6.00;66.80;;;;;;5011633;28;20034;-48
2023/03/27 03:28:42;;;;;;;8.65;1.80;;;6.00;66.80;;;;;;5025301;28;20073;-48
2023/03/27 03:31:42;;;;;;;8.70;1.90;;;6.00;66.80;;;;;;5031196;28;20065;-47
2023/03/27 03:34:13;;;;;;;2.17;1.45;;;6.00;67.00;;;;;;5022631;28;20074;-46
2023/03/27 03:36:43;;;;;;;6.88;1.63;;;6.00;67.20;;;;;;5008223;28;20100;-47
2023/03/27 03:39:17;;;;;;;7.28;1.38;;;6.00;67.50;;;;;;5011947;28;20064;-50
2023/03/27 03:41:51;;;;;;;4.18;1.70;;;6.10;67.70;;;;;;5027694;28;20038;-46
2023/03/27 03:44:25;;;;;;;9.80;2.03;;;6.10;67.80;;;;;;5027905;28;20494;-46
2023/03/27 03:46:57;;;;;;;6.03;2.03;;;6.10;67.90;;;;;;5027675;28;20115;-47
2023/03/27 03:49:26;;;;;;;9.85;1.88;;;6.20;68.00;;;;;;5025305;28;20040;-47
2023/03/27 03:52:02;;;;;;;5.97;1.73;;;6.20;68.00;;;;;;5026046;28;20042;-48
2023/03/27 03:54:32;;;;;;;5.85;1.80;;;6.20;68.00;;;;;;5019797;28;20045;-51
2023/03/27 03:57:04;;;;;;;5.20;1.65;;;6.30;68.00;;;;;;5023942;28;20099;-47
2023/03/27 03:59:35;;;;;;;10.13;2.83;;;6.30;68.00;;;;;;5044630;23;20053;-43
2023/03/27 04:02:31;;;;;;;9.10;2.13;;;6.30;68.00;;;;;;5018355;28;20528;-45
2023/03/27 04:05:10;;;;;;;6.00;1.40;;;6.40;67.90;;;;;;5005077;28;20410;-43
2023/03/27 04:07:44;;;;;;;4.75;1.83;;;6.40;67.80;;;;;;5016583;28;20679;-43
2023/03/27 04:10:34;;;;;;;24.48;1.88;;;6.50;67.90;;;;;;4979481;28;20057;-44
2023/03/27 04:13:09;;;;;;;6.63;1.55;;;6.50;68.00;;;;;;5011609;28;20417;-44
2023/03/27 04:15:47;;;;;;;3.45;1.45;;;6.50;68.00;;;;;;5011081;28;20115;-45
2023/03/27 04:18:38;;;;;;;3.97;1.25;;;6.60;67.90;;;;;;5005282;28;20088;-43
2023/03/27 04:21:13;;;;;;;7.35;2.15;;;6.60;68.10;;;;;;5009005;28;20073;-42
2023/03/27 04:23:48;;;;;;;7.00;1.70;;;6.60;67.90;;;;;;5022452;28;20088;-43
2023/03/27 04:26:25;;;;;;;3.47;1.75;;;6.60;67.90;;;;;;5012478;28;20052;-45
2023/03/27 04:29:21;;;;;;;4.22;1.35;;;6.60;67.80;;;;;;5010317;28;20532;-44
2023/03/27 04:32:00;;;;;;;3.40;1.30;;;6.60;67.80;;;;;;5005463;28;20143;-44
2023/03/27 04:34:39;;;;;;;5.00;1.20;;;6.70;67.80;;;;;;5007934;28;20581;-43
2023/03/27 04:37:26;;;;;;;5.20;1.77;;;6.70;67.80;;;;;;4998712;28;20399;-44
2023/03/27 04:40:05;;;;;;;6.28;2.03;;;6.70;67.70;;;;;;5005353;28;20410;-43
2023/03/27 04:42:32;;;;;;;5.13;1.27;;;6.60;67.70;;;;;;5006149;28;20083;-47
2023/03/27 04:45:00;;;;;;;1.95;1.02;;;6.60;67.80;;;;;;5009575;28;20454;-45
2023/03/27 04:47:27;;;;;;;5.28;1.42;;;6.60;67.90;;;;;;5007323;28;20042;-51
2023/03/27 04:49:59;;;;;;;2.40;1.23;;;6.60;68.00;;;;;;5021313;28;20045;-48
2023/03/27 04:52:28;;;;;;;9.32;1.90;;;6.60;68.20;;;;;;5009574;28;20049;-46
2023/03/27 04:54:57;;;;;;;5.38;1.40;;;6.60;68.20;;;;;;5025569;28;20042;-45
2023/03/27 04:57:27;;;;;;;6.03;1.58;;;6.60;68.20;;;;;;5009302;28;20132;-48
2023/03/27 04:59:59;;;;;;;3.28;0.80;;;6.70;68.30;;;;;;5008812;28;20038;-48
2023/03/27 05:03:06;;;;;;;3.88;1.48;;;6.70;68.30;;;;;;5006195;28;20165;-46
2023/03/27 05:05:46;;;;;;;8.48;1.63;;;6.80;68.20;;;;;;5006216;28;20038;-48
2023/03/27 05:08:13;;;;;;;7.43;1.52;;;6.80;68.30;;;;;;5009222;28;20045;-46
2023/03/27 05:10:41;;;;;;;2.40;1.17;;;6.80;68.30;;;;;;5005015;28;20081;-47
2023/03/27 05:13:09;;;;;;;7.90;1.50;;;6.80;68.40;;;;;;5020294;28;20042;-44
2023/03/27 05:15:37;;;;;;;3.35;0.93;;;6.80;68.50;;;;;;5023149;28;20042;-45
2023/03/27 05:18:07;;;;;;;3.90;1.30;;;6.80;68.40;;;;;;5026625;28;20052;-44
2023/03/27 05:20:35;;;;;;;5.47;1.73;;;6.90;68.40;;;;;;5007605;28;20080;-44
2023/03/27 05:23:07;;;;;;;3.83;1.05;;;6.90;68.40;;;;;;5002171;28;20524;-44
2023/03/27 05:25:38;;;;;;;4.10;1.38;;;6.90;68.30;;;;;;5009983;28;20125;-44
2023/03/27 05:28:09;;;;;;;2.50;1.38;;;6.90;68.20;;;;;;5004567;28;20049;-43
2023/03/27 05:30:41;;;;;;;2.15;1.63;;;6.90;68.10;;;;;;5009858;28;20480;-42
2023/03/27 05:33:17;;;;;;;1.90;1.20;;;6.90;68.10;;;;;;5018409;28;20165;-44
2023/03/27 05:35:46;;;;;;;2.72;1.50;;;6.90;68.20;;;;;;5009945;28;20049;-43
2023/03/27 05:38:14;;;;;;;3.67;1.55;;;6.90;68.20;;;;;;5004118;28;20041;-43
2023/03/27 05:41:01;;;;;;;4.57;1.58;;;6.90;68.30;;;;;;5009288;28;20049;-43
2023/03/27 05:43:29;;;;;;;5.75;1.52;;;6.90;68.20;;;;;;5008980;28;20044;-44
2023/03/27 05:45:56;;;;;;;3.92;1.40;;;6.90;68.20;;;;;;5007418;28;20408;-42
2023/03/27 05:48:23;;;;;;;6.30;1.45;;;6.90;68.30;;;;;;5008073;28;20144;-42
2023/03/27 05:50:50;;;;;;;4.65;2.10;;;6.80;68.20;;;;;;5004096;28;20048;-43
2023/03/27 05:53:21;;;;;;;4.75;1.70;;;6.80;68.40;;;;;;5006583;28;20100;-41
2023/03/27 05:56:17;;;;;;;2.75;1.65;;;6.80;68.50;;;;;;4994838;28;20148;-46
2023/03/27 05:58:53;;;;;;;4.38;1.70;;;6.80;68.50;;;;;;5006959;28;20506;-45
2023/03/27 06:01:22;;;;;;;4.65;1.40;;;6.80;68.70;;;;;;5004611;28;20042;-43
2023/03/27 06:03:54;;;;;;;5.32;2.42;;;6.80;68.80;;;;;;5008272;28;20041;-43
2023/03/27 06:06:38;;;;;;;5.43;1.77;;;6.70;68.90;;;;;;5008618;28;20123;-42
2023/03/27 06:09:04;;;;;;;6.22;2.17;;;6.80;69.00;;;;;;5008914;28;20045;-44
2023/03/27 06:11:35;;;;;;;5.13;2.00;;;6.80;69.10;;;;;;5016586;28;20089;-42
2023/03/27 06:14:02;;;;;;;4.05;2.30;;;6.80;69.20;;;;;;5022458;28;20050;-45
2023/03/27 06:16:45;;;;;;;4.40;1.85;;;6.80;69.20;;;;;;5003479;28;20042;-41
2023/03/27 06:19:32;;;;;;;4.95;2.15;;;6.80;69.10;;;;;;5005500;28;20054;-43
2023/03/27 06:21:58;;;;;;;6.43;2.33;;;6.80;69.00;;;;;;5005306;28;20049;-42
2023/03/27 06:24:25;;;;;;;2.20;1.65;;;6.80;69.00;;;;;;5009523;28;20066;-43
2023/03/27 06:26:51;;;;;;;6.68;2.08;;;6.80;69.10;;;;;;5008155;28;20038;-43
2023/03/27 06:29:20;;;;;;;5.55;2.30;;;6.80;69.10;;;;;;5004714;28;20050;-47
2023/03/27 06:31:49;;;;;;;7.22;2.45;;;6.80;69.20;;;;;;5005447;28;20046;-45
2023/03/27 06:34:28;;;;;;;10.63;2.42;;;6.80;69.30;;;;;;5016923;28;20047;-44
2023/03/27 06:37:03;;;;;;;3.13;1.92;;;6.80;69.30;;;;;;4990140;28;20116;-46
2023/03/27 06:39:39;;;;;;;5.78;3.08;;;6.80;69.30;;;;;;5013975;28;20046;-43
2023/03/27 06:42:06;;;;;;;6.85;2.53;;;6.80;69.30;;;;;;5008523;28;20458;-45
2023/03/27 06:44:35;;;;;;;6.78;2.28;;;6.80;69.30;;;;;;5001626;28;20050;-46
2023/03/27 06:47:21;;;;;;;6.07;2.58;;;6.90;69.40;;;;;;5007243;28;20550;-45
2023/03/27 06:50:08;;;;;;;5.53;2.33;;;6.80;69.40;;;;;;5007802;28;20050;-45
2023/03/27 06:52:35;;;;;;;3.53;2.58;;;6.80;69.60;;;;;;5007745;28;20445;-45
2023/03/27 06:55:27;;;;;;;7.47;2.17;;;6.90;69.80;;;;;;4996323;28;20406;-43
2023/03/27 06:57:57;;;;;;;6.95;2.30;;;6.90;69.90;;;;;;5007083;28;20057;-43
2023/03/27 07:00:27;;;;;;;5.82;2.38;;;7.00;70.00;;;;;;5005080;28;20070;-45
2023/03/27 07:03:31;;;;;;;6.15;1.98;;;7.00;70.10;;;;;;5003587;28;20100;-41
2023/03/27 07:06:18;;;;;;;5.30;2.15;;;7.10;70.10;;;;;;5004984;28;20034;-44
2023/03/27 07:08:50;;;;;;;7.45;2.67;;;7.10;70.10;;;;;;5008869;28;20034;-44
2023/03/27 07:11:17;;;;;;;3.63;2.55;;;7.20;70.00;;;;;;4998293;28;20038;-42
2023/03/27 07:13:56;;;;;;;3.53;1.92;;;7.20;69.80;;;;;;5006551;28;20058;-47
2023/03/27 07:16:26;;;;;;;5.68;2.08;;;7.20;69.50;;;;;;5007844;28;20050;-47
2023/03/27 07:18:53;;;;;;;7.30;2.35;;;7.30;69.40;;;;;;5001058;28;20039;-42
2023/03/27 07:21:20;;;;;;;5.40;1.85;;;7.30;69.30;;;;;;5006602;28;20030;-46
2023/03/27 07:23:49;;;;;;;6.90;2.20;;;7.40;69.50;;;;;;5004249;28;20129;-44
2023/03/27 07:26:28;;;;;;;4.95;2.13;;;7.40;69.50;;;;;;5000221;28;20061;-43
2023/03/27 07:28:59;;;;;;;4.28;2.05;;;7.50;69.40;;;;;;5004525;28;20065;-42
2023/03/27 07:31:27;;;;;;;8.50;2.28;;;7.50;69.40;;;;;;5005182;28;20042;-45
2023/03/27 07:34:14;;;;;;;5.50;2.47;;;7.60;69.40;;;;;;5007954;28;20120;-47
2023/03/27 07:37:01;;;;;;;4.00;1.70;;;7.70;69.40;;;;;;5009456;28;20180;-45
2023/03/27 07:39:30;;;;;;;6.65;2.05;;;7.80;69.20;;;;;;5004905;28;20073;-43
2023/03/27 07:41:59;;;;;;;2.83;1.65;;;7.90;69.00;;;;;;5007395;28;20057;-43
2023/03/27 07:44:32;;;;;;;3.20;1.95;;;8.00;68.80;;;;;;5008595;28;20038;-41
2023/03/27 07:47:03;;;;;;;4.85;2.10;;;8.00;68.40;;;;;;5007574;28;20122;-44
2023/03/27 07:49:30;;;;;;;5.13;1.98;;;8.10;68.00;;;;;;5009092;28;20418;-44
2023/03/27 07:52:08;;;;;;;4.40;1.77;;;8.10;67.70;;;;;;5004332;28;20125;-48
2023/03/27 07:54:41;;;;;;;5.57;2.00;;;8.10;67.40;;;;;;5007960;28;20034;-43
2023/03/27 07:57:10;;;;;;;3.53;1.67;;;8.10;67.30;;;;;;5001124;28;20133;-43
2023/03/27 07:59:51;;;;;;;3.22;1.77;;;8.10;67.30;;;;;;5007581;28;20049;-47
2023/03/27 08:02:26;;;;;;;4.78;1.55;;;8.10;67.30;;;;;;5015463;28;20038;-42
2023/03/27 08:04:53;;;;;;;3.25;1.60;;;8.20;67.10;;;;;;5008440;28;20050;-43
2023/03/27 08:07:21;;;;;;;5.43;1.95;;;8.20;67.00;;;;;;5016920;28;20060;-42
2023/03/27 08:09:56;;;;;;;4.93;1.75;;;8.20;67.10;;;;;;5000456;28;20053;-45
2023/03/27 08:12:23;;;;;;;4.03;2.03;;;8.20;67.10;;;;;;5008030;28;20474;-42
2023/03/27 08:14:56;;;;;;;4.68;1.92;;;8.20;66.90;;;;;;5008707;28;20096;-43
2023/03/27 08:17:26;;;;;;;4.30;2.30;;;8.20;66.70;;;;;;5005279;28;20121;-45
2023/03/27 08:19:54;;;;;;;4.45;1.98;;;8.30;66.70;;;;;;5009036;28;20034;-41
2023/03/27 08:22:22;;;;;;;3.42;2.10;;;8.30;66.70;;;;;;5006111;28;20054;-45
2023/03/27 08:25:12;;;;;;;4.93;2.40;;;8.30;66.30;;;;;;4999720;28;20057;-44
2023/03/27 08:27:42;;;;;;;7.10;2.10;;;8.40;65.90;;;;;;4989818;28;20529;-42
2023/03/27 08:30:11;;;;;;;3.45;1.80;;;8.40;65.70;;;;;;5020898;28;20473;-43
2023/03/27 08:32:40;;;;;;;2.40;1.48;;;8.40;65.40;;;;;;5006471;28;20112;-42
2023/03/27 08:35:12;;;;;;;4.03;1.63;;;8.40;64.80;;;;;;5025051;28;20038;-42
2023/03/27 08:37:40;;;;;;;4.88;2.05;;;8.40;64.80;;;;;;5005157;28;20096;-44
2023/03/27 08:40:32;;;;;;;8.50;2.08;;;8.40;64.80;;;;;;5010950;28;20141;-47
2023/03/27 08:43:27;;;;;;;7.55;1.73;;;8.40;64.40;;;;;;5011201;28;20065;-47
2023/03/27 08:46:07;;;;;;;7.75;2.08;;;8.50;64.40;;;;;;5012046;28;20073;-46
2023/03/27 08:48:52;;;;;;;12.48;2.20;;;8.50;63.80;;;;;;5004416;28;20124;-43
2023/03/27 08:51:43;;;;;;;5.20;1.52;;;8.60;63.50;;;;;;5005731;28;20152;-47
2023/03/27 08:54:23;;;;;;;3.08;1.83;;;8.60;63.20;;;;;;5019265;28;20830;-42
2023/03/27 08:56:50;;;;;;;2.65;1.00;;;8.60;62.00;;;;;;5011528;28;20129;-43
2023/03/27 08:59:20;;;;;;;2.88;1.50;;;8.70;62.20;;;;;;5025708;28;20503;-45
2023/03/27 09:02:13;;;;;;;4.63;1.23;;;8.80;61.80;;;;;;5006625;28;20538;-44
2023/03/27 09:05:03;;;;;;;3.17;1.55;;;8.90;60.40;;;;;;5011589;28;20057;-47
2023/03/27 09:07:56;;;;;;;5.15;1.15;;;9.00;60.80;;;;;;5007987;28;20617;-44
2023/03/27 09:10:48;;;;;;;3.63;1.02;;;9.00;61.20;;;;;;5003974;28;20403;-42
2023/03/27 09:13:42;;;;;;;3.75;1.15;;;9.10;61.10;;;;;;5010548;28;20042;-43
2023/03/27 09:16:17;;;;;;;4.05;1.25;;;9.20;61.20;;;;;;5011311;28;20046;-43
2023/03/27 09:19:00;;;;;;;5.95;1.80;;;9.30;61.30;;;;;;5022204;28;20042;-43
2023/03/27 09:21:42;;;;;;;4.78;1.33;;;9.40;60.80;;;;;;4997644;28;20038;-42
2023/03/27 09:24:27;;;;;;;4.97;1.48;;;9.50;60.50;;;;;;5010357;28;20137;-48
2023/03/27 09:27:28;;;;;;;3.72;1.27;;;9.50;60.90;;;;;;4958229;28;20054;-42
2023/03/27 09:30:09;;;;;;;2.72;1.20;;;9.60;60.80;;;;;;4996678;28;20046;-43
2023/03/27 09:32:47;;;;;;;4.68;1.50;;;9.70;59.80;;;;;;5017651;28;20058;-42
2023/03/27 09:35:16;;;;;;;9.23;1.33;;;9.80;60.00;;;;;;5024423;28;20054;-44
2023/03/27 09:37:45;;;;;;;6.38;1.40;;;9.80;59.50;;;;;;4997403;28;20085;-43
2023/03/27 09:40:22;;;;;;;4.32;1.40;;;9.80;59.60;;;;;;4998184;28;20761;-46
2023/03/27 09:42:53;;;;;;;2.53;1.20;;;9.80;59.60;;;;;;4996977;28;20129;-45
2023/03/27 09:45:21;;;;;;;5.30;1.35;;;9.90;59.80;;;;;;5006352;28;20038;-46
2023/03/27 09:48:00;;;;;;;5.93;1.27;;;10.00;59.80;;;;;;5011952;28;20388;-46
2023/03/27 09:50:46;;;;;;;3.65;1.10;;;10.00;58.90;;;;;;5000848;28;20088;-44
2023/03/27 09:53:37;;;;;;;4.38;1.52;;;10.10;59.00;;;;;;5009656;28;20541;-43
2023/03/27 09:56:17;;;;;;;2.63;1.20;;;10.20;59.10;;;;;;5023642;28;20085;-42
2023/03/27 09:58:50;;;;;;;3.70;1.63;;;10.30;59.40;;;;;;5003395;28;20141;-44
2023/03/27 10:01:23;;;;;;;4.13;1.00;;;10.20;59.50;;;;;;5006551;28;20072;-43
2023/03/27 10:03:56;;;;;;;4.50;1.17;;;10.30;59.20;;;;;;5037938;23;20564;-50
2023/03/27 10:06:50;;;;;;;3.88;0.88;;;10.30;58.60;;;;;;5013939;28;20049;-49
2023/03/27 10:09:33;;;;;;;3.22;1.30;;;10.30;58.20;;;;;;5026401;28;20133;-47
2023/03/27 10:12:06;;;;;;;;;;;10.30;57.50;;;;;;5018429;28;20080;-50
2023/03/27 10:14:38;;;;;;;2.50;1.40;;;10.40;58.70;;;;;;5034445;28;19924;-48
2023/03/27 10:17:06;;;;;;;;;;;10.40;58.90;;;;;;5049443;28;20512;-50
2023/03/27 10:19:37;;;;;;;1.50;0.93;;;10.40;58.90;;;;;;5047470;28;19921;-50
2023/03/27 10:22:21;;;;;;;2.47;0.80;;;10.50;59.20;;;;;;5044737;28;20041;-50
2023/03/27 10:24:48;;;;;;;1.75;0.70;;;10.60;57.50;;;;;;5048267;28;20045;-47
2023/03/27 10:27:39;;;;;;;1.88;0.75;;;10.60;58.50;;;;;;5028774;28;20091;-48
2023/03/27 10:30:36;;;;;;;3.80;0.82;;;10.70;58.50;;;;;;5036639;28;20049;-50
2023/03/27 10:33:38;;;;;;;2.47;1.00;;;10.70;58.00;;;;;;5045215;28;20044;-49
2023/03/27 10:36:12;;;;;;;1.35;1.00;;;10.70;56.60;;;;;;5047267;28;20068;-51
2023/03/27 10:38:40;;;;;;;4.18;1.30;;;10.70;57.50;;;;;;5050617;28;20045;-49
2023/03/27 10:41:28;;;;;;;1.10;0.98;;;10.60;57.70;;;;;;5041386;28;20068;-52
2023/03/27 10:43:58;;;;;;;2.60;0.85;;;10.50;57.80;;;;;;5036987;28;20132;-48
2023/03/27 10:46:27;;;;;;;3.50;1.00;;;10.50;58.10;;;;;;5048571;28;20044;-50
2023/03/27 10:49:27;;;;;;;1.88;0.63;;;10.50;57.30;;;;;;5045888;28;20486;-47
2023/03/27 10:52:15;;;;;;;1.63;0.70;;;10.50;56.30;;;;;;5029661;28;20056;-53
2023/03/27 10:55:22;;;;;;;1.52;0.60;;;10.50;56.80;;;;;;5038394;28;20044;-53
2023/03/27 10:57:55;;;;;;;1.08;0.52;;;10.50;56.10;;;;;;5034378;28;20140;-50
2023/03/27 11:00:39;;;;;;;2.40;0.60;;;10.50;57.00;;;;;;5045351;28;20037;-53
2023/03/27 11:04:07;;;;;;;1.90;0.50;;;10.60;55.70;;;;;;5033733;28;20037;-52
2023/03/27 11:06:46;;;;;;;1.98;0.63;;;10.70;54.80;;;;;;5042424;28;20067;-50
2023/03/27 11:09:33;;;;;;;1.27;0.77;;;10.70;55.80;;;;;;5039466;28;20041;-53
2023/03/27 11:12:10;;;;;;;3.55;0.93;;;10.80;55.20;;;;;;5044565;28;20045;-54
2023/03/27 11:15:01;;;;;;;2.38;0.63;;;10.90;55.90;;;;;;5034612;28;20065;-53
2023/03/27 11:17:38;;;;;;;1.13;0.75;;;11.00;54.80;;;;;;5036561;28;20099;-49
2023/03/27 11:20:24;;;;;;;1.02;0.80;;;11.10;55.30;;;;;;5044314;28;20071;-52
2023/03/27 11:23:19;;;;;;;3.80;0.98;;;11.20;54.70;;;;;;5045482;28;20049;-50
2023/03/27 11:26:11;;;;;;;1.58;0.73;;;11.10;54.00;;;;;;5049382;28;20045;-47
2023/03/27 11:28:52;;;;;;;1.92;0.70;;;11.10;55.10;;;;;;5046400;28;20513;-47
2023/03/27 11:31:36;;;;;;;1.65;0.68;;;11.10;55.80;;;;;;5048224;28;20069;-50
2023/03/27 11:34:31;;;;;;;2.88;0.82;;;11.10;56.00;;;;;;5031831;28;20049;-46
2023/03/27 11:37:29;;;;;;;3.07;0.60;;;11.00;56.90;;;;;;5047656;28;20405;-50
2023/03/27 11:39:59;;;;;;;2.00;0.75;;;11.10;57.50;;;;;;5043230;28;20299;-50
2023/03/27 11:42:29;;;;;;;2.75;0.70;;;11.10;57.60;;;;;;5047244;28;20052;-47
2023/03/27 11:44:57;;;;;;;1.85;0.60;;;11.10;57.60;;;;;;5033246;28;20509;-48
2023/03/27 11:47:48;;;;;;;1.25;0.60;;;11.10;57.50;;;;;;5037308;28;20076;-46
2023/03/27 11:50:25;;;;;;;2.15;0.50;;;11.10;57.80;;;;;;5045199;28;20103;-48
2023/03/27 11:53:08;;;;;;;0.88;0.50;;;11.10;57.50;;;;;;5046986;28;20045;-50
2023/03/27 11:56:09;;;;;;;3.30;0.75;;;11.10;57.50;;;;;;5049807;28;20048;-50
2023/03/27 11:58:56;;;;;;;3.05;0.70;;;11.20;57.20;;;;;;5043686;28;20388;-51
2023/03/27 12:01:50;;;;;;;1.88;0.70;;;11.20;56.90;;;;;;5045938;28;20490;-47
2023/03/27 12:04:51;;;;;;;2.97;0.88;;;11.20;56.60;;;;;;5047600;28;20071;-47
2023/03/27 12:07:37;;;;;;;2.15;0.60;;;11.20;56.00;;;;;;5028207;28;20049;-53
2023/03/27 12:10:25;;;;;;;1.85;0.40;;;11.20;56.90;;;;;;5032792;28;20120;-48
2023/03/27 12:13:47;;;;;;;4.85;1.02;;;11.20;55.50;;;;;;5044680;28;20041;-50
2023/03/27 12:16:45;;;;;;;2.28;0.70;;;11.30;55.50;;;;;;5051052;28;20045;-48
2023/03/27 12:19:44;;;;;;;3.03;0.80;;;11.40;55.20;;;;;;5039330;28;20417;-48
2023/03/27 12:22:26;;;;;;;2.28;0.77;;;11.40;53.60;;;;;;5047643;28;20079;-51
2023/03/27 12:25:18;;;;;;;2.90;0.68;;;11.40;55.00;;;;;;5037485;28;20053;-49
2023/03/27 12:28:07;;;;;;;1.10;0.73;;;11.30;55.50;;;;;;5045350;28;20053;-48
2023/03/27 12:30:55;;;;;;;1.92;0.70;;;11.20;54.10;;;;;;5036749;28;20045;-53
2023/03/27 12:33:58;;;;;;;1.67;0.57;;;11.00;55.70;;;;;;5039349;28;20076;-51
2023/03/27 12:36:29;;;;;;;3.08;0.63;;;10.90;56.30;;;;;;5057368;28;20517;-49
2023/03/27 12:38:59;;;;;;;4.00;1.00;;;10.80;57.10;;;;;;5042110;28;20583;-53
2023/03/27 12:41:32;;;;;;;1.88;0.68;;;10.70;57.50;;;;;;5049698;28;20133;-51
2023/03/27 12:44:05;;;;;;;5.85;1.38;;;10.70;57.50;;;;;;5036353;28;20075;-57
2023/03/27 12:46:38;;;;;;;2.08;0.70;;;10.70;56.90;;;;;;5033458;28;20069;-53
2023/03/27 12:49:06;;;;;;;2.53;0.80;;;10.80;57.50;;;;;;5038646;28;20044;-53
2023/03/27 12:51:52;;;;;;;2.10;0.75;;;10.80;57.30;;;;;;5042741;28;20077;-54
2023/03/27 12:54:38;;;;;;;1.73;0.70;;;10.70;56.40;;;;;;5043134;28;20068;-55
2023/03/27 12:57:24;;;;;;;1.65;0.50;;;10.70;55.60;;;;;;5037342;28;20052;-53
2023/03/27 12:59:58;;;;;;;2.42;0.40;;;10.70;55.90;;;;;;5041621;28;20061;-55
2023/03/27 13:03:12;;;;;;;1.60;0.50;;;10.70;56.10;;;;;;5039799;28;20132;-55
2023/03/27 13:05:49;;;;;;;2.42;0.75;;;10.70;55.50;;;;;;5042548;28;20051;-51
2023/03/27 13:08:44;;;;;;;3.35;0.60;;;10.70;55.90;;;;;;5042866;28;20453;-52
2023/03/27 13:11:34;;;;;;;2.92;0.85;;;10.70;55.90;;;;;;5041124;28;20472;-56
2023/03/27 13:14:38;;;;;;;2.20;0.57;;;10.70;55.50;;;;;;5056339;28;20529;-52
2023/03/27 13:17:28;;;;;;;4.30;0.73;;;10.80;56.20;;;;;;5032848;28;20569;-54
2023/03/27 13:20:29;;;;;;;2.10;0.50;;;10.80;56.40;;;;;;5058948;28;20051;-57
2023/03/27 13:23:22;;;;;;;0.93;0.60;;;10.90;55.00;;;;;;5042410;28;20135;-53
2023/03/27 13:25:51;;;;;;;;;;;11.00;53.80;;;;;;5028202;28;20041;-54
2023/03/27 13:28:30;;;;;;;1.85;0.90;;;11.10;55.70;;;;;;5048385;28;19947;-49
2023/03/27 13:31:57;;;;;;;4.35;1.10;;;11.20;55.40;;;;;;5039190;28;20052;-55
2023/03/27 13:34:41;;;;;;;2.15;0.68;;;11.40;55.50;;;;;;5000873;28;20140;-53
2023/03/27 13:37:13;;;;;;;5.22;1.05;;;11.50;54.90;;;;;;5039789;28;20047;-57
2023/03/27 13:39:54;;;;;;;2.42;0.55;;;11.60;56.30;;;;;;5040915;28;20045;-53
2023/03/27 13:42:38;;;;;;;4.13;0.50;;;11.40;55.90;;;;;;5036710;28;20048;-54
2023/03/27 13:45:15;;;;;;;0.65;0.60;;;11.20;56.30;;;;;;5036985;28;20045;-54
2023/03/27 13:48:06;;;;;;;1.58;0.88;;;11.00;58.30;;;;;;5042839;28;20052;-55
2023/03/27 13:51:05;;;;;;;1.75;0.98;;;11.00;61.10;;;;;;5055317;28;20052;-54
2023/03/27 13:53:43;;;;;;;1.33;1.10;;;11.40;63.50;;;;;;5043498;28;20536;-55
2023/03/27 13:57:04;;;;;;;1.27;0.50;;;12.10;64.50;;;;;;5049683;28;20045;-54
2023/03/27 14:00:05;;;;;;;2.17;0.80;;;13.20;61.70;;;;;;5044223;28;20053;-53